Aviation Digital Data Service (ADDS)

Output produced by METARs form (0958 UTC 19 January 2019)
found at http://www.aviationweather.gov/metar/data/
 
MPPA 190900Z 03010KT 9999 FEW020 24/22 Q1010
TAF MPPA 190400Z 1906/2012 00000KT 9999 FEW018 
     BECMG 1910/1914 02012KT SCT018 
     BECMG 1915/1918 01016KT SCT020
       
TAF MPDA 182200Z 1824/1912 03016KT 9999 FEW018 
     BECMG 1902/1906 32006KT
       
TAF MPMG 182200Z 1824/1912 34016KT 9999 SCT018 
     BECMG 1900/1904 31007KT
       
MPTO 190900Z 30005KT 9999 FEW018 SCT090 25/21 Q1011 NOSIG
TAF MPTO 190400Z 1906/2012 00000KT 9999 FEW018 
     BECMG 1910/1914 03010KT SCT018 
     BECMG 1915/1918 03015KT SCT020